createdAt,value
2023-03-21T00:01:43.385Z,8.68
2023-03-21T00:03:49.264Z,10.90
2023-03-21T00:05:53.645Z,7.50
2023-03-21T00:07:56.487Z,7.95
2023-03-21T00:10:08.674Z,8.98
2023-03-21T00:12:17.151Z,7.18
2023-03-21T00:14:20.215Z,8.27
2023-03-21T00:16:28.896Z,12.70
2023-03-21T00:18:32.323Z,10.23
2023-03-21T00:20:37.765Z,8.40
2023-03-21T00:22:40.407Z,13.98
2023-03-21T00:24:42.985Z,8.82
2023-03-21T00:26:46.158Z,7.35
2023-03-21T00:28:48.856Z,10.02
2023-03-21T00:30:51.975Z,8.98
2023-03-21T00:32:57.033Z,10.85
2023-03-21T00:35:16.382Z,8.38
2023-03-21T00:37:23.574Z,10.02
2023-03-21T00:39:26.638Z,8.55
2023-03-21T00:41:41.856Z,8.32
2023-03-21T00:43:44.909Z,8.73
2023-03-21T00:45:47.784Z,8.55
2023-03-21T00:47:51.325Z,9.82
2023-03-21T00:49:54.016Z,8.13
2023-03-21T00:51:59.561Z,8.68
2023-03-21T00:54:06.448Z,8.13
2023-03-21T00:56:09.919Z,8.07
2023-03-21T00:58:12.957Z,7.05
2023-03-21T01:00:18.011Z,8.77
2023-03-21T01:02:23.013Z,6.43
2023-03-21T01:04:26.894Z,10.05
2023-03-21T01:06:29.624Z,8.07
2023-03-21T01:08:48.644Z,9.13
2023-03-21T01:10:56.685Z,9.68
2023-03-21T01:12:59.608Z,9.43
2023-03-21T01:15:02.230Z,8.65
2023-03-21T01:17:05.320Z,8.60
2023-03-21T01:19:22.212Z,8.57
2023-03-21T01:21:27.651Z,9.75
2023-03-21T01:23:30.644Z,8.68
2023-03-21T01:25:33.212Z,7.70
2023-03-21T01:27:37.119Z,7.43
2023-03-21T01:29:39.672Z,8.07
2023-03-21T01:31:42.260Z,8.18
2023-03-21T01:33:45.315Z,8.98
2023-03-21T01:35:53.398Z,8.60
2023-03-21T01:38:05.723Z,7.80
2023-03-21T01:40:12.681Z,6.10
2023-03-21T01:42:15.458Z,9.80
2023-03-21T01:44:20.681Z,10.23
2023-03-21T01:46:45.387Z,6.45
2023-03-21T01:48:55.904Z,5.10
2023-03-21T01:50:59.444Z,6.00
2023-03-21T01:53:04.045Z,7.03
2023-03-21T01:55:12.562Z,8.60
2023-03-21T01:57:20.977Z,6.60
2023-03-21T01:59:29.276Z,8.43
2023-03-21T02:01:34.810Z,6.93
2023-03-21T02:03:50.209Z,7.80
2023-03-21T02:05:56.889Z,5.20
2023-03-21T02:08:00.812Z,8.15
2023-03-21T02:10:07.795Z,6.68
2023-03-21T02:12:10.427Z,6.00
2023-03-21T02:14:23.398Z,5.68
2023-03-21T02:16:47.027Z,7.82
2023-03-21T02:18:57.847Z,8.75
2023-03-21T02:21:44.926Z,9.15
2023-03-21T02:24:08.981Z,8.40
2023-03-21T02:26:40.878Z,7.50
2023-03-21T02:28:50.725Z,6.70
2023-03-21T02:31:08.398Z,7.85
2023-03-21T02:33:54.186Z,6.18
2023-03-21T02:36:17.529Z,7.32
2023-03-21T02:38:28.119Z,7.30
2023-03-21T02:40:36.089Z,8.63
2023-03-21T02:42:58.010Z,8.23
2023-03-21T02:45:07.608Z,10.18
2023-03-21T02:47:14.881Z,6.55
2023-03-21T02:49:23.420Z,9.93
2023-03-21T02:51:28.803Z,6.90
2023-03-21T02:53:36.873Z,6.57
2023-03-21T02:55:43.774Z,10.82
2023-03-21T02:57:50.559Z,8.63
2023-03-21T03:00:00.157Z,7.18
2023-03-21T03:04:19.401Z,5.97
2023-03-21T03:06:27.593Z,11.10
2023-03-21T03:08:52.892Z,12.75
2023-03-21T03:11:16.404Z,4.72
2023-03-21T03:13:35.851Z,6.40
2023-03-21T03:15:48.012Z,6.28
2023-03-21T03:17:55.483Z,7.43
2023-03-21T03:20:17.448Z,7.00
2023-03-21T03:22:27.570Z,5.18
2023-03-21T03:24:35.028Z,8.02
2023-03-21T03:26:42.427Z,7.85
2023-03-21T03:28:50.180Z,8.40
2023-03-21T03:31:08.022Z,7.53
2023-03-21T03:33:14.901Z,6.70
2023-03-21T03:35:19.705Z,7.45
2023-03-21T03:37:26.398Z,6.53
2023-03-21T03:39:37.101Z,7.47
2023-03-21T03:44:09.676Z,7.65
2023-03-21T03:46:17.356Z,9.02
2023-03-21T03:48:26.223Z,8.90
2023-03-21T03:50:32.786Z,10.90
2023-03-21T03:52:50.122Z,11.15
2023-03-21T03:54:59.820Z,9.60
2023-03-21T03:57:02.542Z,7.63
2023-03-21T03:59:07.347Z,9.93
2023-03-21T04:01:09.909Z,5.85
2023-03-21T04:03:12.844Z,11.63
2023-03-21T04:05:15.639Z,6.50
2023-03-21T04:07:18.351Z,9.18
2023-03-21T04:09:31.341Z,8.50
2023-03-21T04:11:41.292Z,8.13
2023-03-21T04:13:43.906Z,11.73
2023-03-21T04:15:46.807Z,10.35
2023-03-21T04:17:49.421Z,8.30
2023-03-21T04:19:57.770Z,14.63
2023-03-21T04:22:08.132Z,6.97
2023-03-21T04:24:11.925Z,8.07
2023-03-21T04:26:14.536Z,7.38
2023-03-21T04:28:18.509Z,7.55
2023-03-21T04:30:24.761Z,8.45
2023-03-21T04:32:27.525Z,8.32
2023-03-21T04:34:30.085Z,8.00
2023-03-21T04:36:38.918Z,7.47
2023-03-21T04:38:41.721Z,6.28
2023-03-21T04:40:44.290Z,10.63
2023-03-21T04:42:48.186Z,6.03
2023-03-21T04:44:52.196Z,10.23
2023-03-21T04:46:54.745Z,9.15
2023-03-21T04:48:57.354Z,8.98
2023-03-21T04:50:59.936Z,9.25
2023-03-21T04:53:02.489Z,8.05
2023-03-21T04:55:05.785Z,10.40
2023-03-21T04:57:09.029Z,12.07
2023-03-21T04:59:13.910Z,10.18
2023-03-21T05:01:20.654Z,8.35
2023-03-21T05:03:23.379Z,8.80
2023-03-21T05:05:26.225Z,7.18
2023-03-21T05:07:31.235Z,9.35
2023-03-21T05:09:33.810Z,10.07
2023-03-21T05:11:38.708Z,8.15
2023-03-21T05:13:41.473Z,11.80
2023-03-21T05:15:44.048Z,10.40
2023-03-21T05:17:48.665Z,10.07
2023-03-21T05:19:52.801Z,9.88
2023-03-21T05:21:55.448Z,7.82
2023-03-21T05:23:58.410Z,9.02
2023-03-21T05:26:01.011Z,10.60
2023-03-21T05:28:03.609Z,9.63
2023-03-21T05:30:08.539Z,9.75
2023-03-21T05:32:11.132Z,7.97
2023-03-21T05:34:15.399Z,9.52
2023-03-21T05:36:18.004Z,8.52
2023-03-21T05:38:20.603Z,10.00
2023-03-21T05:40:23.428Z,8.55
2023-03-21T05:42:26.660Z,9.20
2023-03-21T05:44:29.291Z,9.93
2023-03-21T05:46:32.012Z,8.55
2023-03-21T05:48:35.388Z,9.50
2023-03-21T05:50:39.774Z,10.32
2023-03-21T05:52:42.356Z,8.23
2023-03-21T05:54:45.005Z,8.13
2023-03-21T05:56:47.577Z,10.15
2023-03-21T05:58:50.142Z,8.52
2023-03-21T06:00:52.714Z,13.32
2023-03-21T06:02:55.346Z,9.55
2023-03-21T06:04:57.907Z,9.00
2023-03-21T06:07:01.897Z,9.05
2023-03-21T06:09:04.744Z,7.57
2023-03-21T06:11:14.222Z,9.35
2023-03-21T06:13:16.895Z,9.52
2023-03-21T06:15:19.450Z,10.32
2023-03-21T06:17:22.063Z,9.82
2023-03-21T06:19:24.637Z,9.95
2023-03-21T06:21:27.231Z,8.18
2023-03-21T06:23:31.152Z,8.80
2023-03-21T06:25:33.799Z,7.75
2023-03-21T06:27:37.187Z,9.70
2023-03-21T06:29:39.763Z,7.75
2023-03-21T06:31:42.379Z,10.63
2023-03-21T06:33:44.987Z,6.78
2023-03-21T06:35:52.399Z,10.70
2023-03-21T06:37:55.052Z,8.52
2023-03-21T06:39:58.939Z,7.00
2023-03-21T06:42:01.912Z,8.23
2023-03-21T06:44:04.867Z,12.25
2023-03-21T06:46:07.520Z,8.48
2023-03-21T06:48:10.301Z,8.88
2023-03-21T06:50:12.953Z,9.38
2023-03-21T06:52:15.528Z,8.60
2023-03-21T06:54:18.949Z,7.82
2023-03-21T06:56:23.026Z,8.90
2023-03-21T06:58:25.656Z,6.88
2023-03-21T07:00:28.565Z,10.00
2023-03-21T07:02:31.508Z,8.77
2023-03-21T07:04:34.398Z,8.63
2023-03-21T07:06:37.124Z,11.68
2023-03-21T07:08:40.300Z,9.68
2023-03-21T07:10:45.425Z,9.20
2023-03-21T07:12:49.523Z,9.63
2023-03-21T07:14:52.295Z,9.93
2023-03-21T07:16:54.930Z,5.80
2023-03-21T07:18:57.508Z,7.18
2023-03-21T07:21:00.373Z,9.80
2023-03-21T07:23:02.987Z,5.68
2023-03-21T07:25:07.716Z,6.57
2023-03-21T07:27:10.519Z,7.68
2023-03-21T07:29:15.350Z,8.23
2023-03-21T07:31:19.689Z,12.65
2023-03-21T07:33:23.167Z,13.35
2023-03-21T07:35:25.887Z,10.75
2023-03-21T07:37:28.725Z,11.40
2023-03-21T07:39:32.908Z,8.88
2023-03-21T07:41:35.480Z,10.25
2023-03-21T07:43:39.308Z,8.48
2023-03-21T07:45:44.312Z,9.25
2023-03-21T07:47:46.897Z,8.80
2023-03-21T07:49:49.451Z,6.22
2023-03-21T07:51:52.053Z,11.00
2023-03-21T07:53:54.804Z,12.73
2023-03-21T07:55:57.415Z,11.20
2023-03-21T07:57:59.952Z,6.63
2023-03-21T08:00:03.455Z,9.07
2023-03-21T08:02:07.395Z,9.95
2023-03-21T08:04:10.000Z,10.52
2023-03-21T08:06:12.644Z,8.40
2023-03-21T08:08:15.204Z,10.50
2023-03-21T08:10:18.543Z,12.18
2023-03-21T08:12:23.390Z,8.35
2023-03-21T08:14:26.002Z,9.57
2023-03-21T08:16:29.124Z,7.10
2023-03-21T08:18:33.067Z,8.80
2023-03-21T08:20:35.798Z,9.20
2023-03-21T08:22:38.753Z,12.95
2023-03-21T08:24:41.321Z,10.15
2023-03-21T08:26:45.924Z,9.93
2023-03-21T08:28:48.478Z,7.13
2023-03-21T08:30:51.210Z,7.60
2023-03-21T08:33:00.835Z,8.20
2023-03-21T08:35:08.513Z,8.85
2023-03-21T08:37:11.174Z,6.07
2023-03-21T08:39:13.912Z,9.15
2023-03-21T08:41:16.544Z,6.65
2023-03-21T08:43:19.098Z,6.95
2023-03-21T08:45:22.652Z,6.38
2023-03-21T08:47:25.236Z,8.75
2023-03-21T08:49:27.802Z,7.63
2023-03-21T08:51:33.637Z,7.45
2023-03-21T08:53:36.293Z,10.30
2023-03-21T08:55:39.219Z,5.53
2023-03-21T08:57:42.122Z,6.60
2023-03-21T08:59:44.682Z,7.72
2023-03-21T09:01:47.805Z,6.22
2023-03-21T09:03:50.411Z,6.57
2023-03-21T09:05:54.833Z,10.00
2023-03-21T09:08:01.481Z,7.30
2023-03-21T09:10:19.590Z,6.25
2023-03-21T09:12:23.063Z,6.15
2023-03-21T09:14:28.805Z,7.13
2023-03-21T09:16:32.282Z,6.32
2023-03-21T09:18:47.248Z,5.88
2023-03-21T09:20:50.427Z,9.13
2023-03-21T09:22:53.347Z,10.57
2023-03-21T09:24:57.490Z,7.60
2023-03-21T09:27:00.647Z,5.40
2023-03-21T09:29:04.887Z,7.35
2023-03-21T09:31:11.669Z,6.90
2023-03-21T09:33:19.237Z,7.85
2023-03-21T09:35:22.038Z,8.02
2023-03-21T09:37:24.652Z,4.07
2023-03-21T09:39:27.635Z,4.50
2023-03-21T09:41:46.720Z,4.82
2023-03-21T09:44:08.109Z,5.28
2023-03-21T09:46:20.712Z,7.25
2023-03-21T09:48:34.967Z,6.82
2023-03-21T09:50:40.483Z,3.45
2023-03-21T09:52:48.375Z,4.07
2023-03-21T09:54:50.997Z,4.80
2023-03-21T09:56:57.500Z,7.45
2023-03-21T09:59:03.110Z,4.65
2023-03-21T10:01:22.294Z,5.55
2023-03-21T10:03:34.945Z,3.72
2023-03-21T10:05:46.547Z,3.97
2023-03-21T10:07:55.470Z,5.00
2023-03-21T10:09:59.641Z,5.90
2023-03-21T10:12:08.229Z,4.82
2023-03-21T10:14:17.496Z,7.25
2023-03-21T10:16:24.380Z,5.28
2023-03-21T10:18:30.585Z,4.00
2023-03-21T10:20:35.416Z,4.57
2023-03-21T10:22:38.033Z,5.60
2023-03-21T10:24:40.671Z,8.35
2023-03-21T10:26:45.331Z,5.63
2023-03-21T10:28:53.332Z,6.93
2023-03-21T10:30:59.296Z,7.30
2023-03-21T10:33:05.684Z,4.82
2023-03-21T10:35:11.102Z,5.15
2023-03-21T10:37:14.829Z,4.60
2023-03-21T10:39:25.836Z,4.43
2023-03-21T10:41:28.468Z,4.60
2023-03-21T10:43:37.780Z,8.73
2023-03-21T10:45:41.897Z,4.70
2023-03-21T10:47:47.703Z,7.90
2023-03-21T10:50:06.237Z,4.57
2023-03-21T10:52:20.883Z,4.07
2023-03-21T10:54:28.301Z,4.90
2023-03-21T10:56:33.046Z,5.43
2023-03-21T10:58:39.874Z,6.80
2023-03-21T11:00:45.106Z,6.25
2023-03-21T11:02:50.337Z,5.45
2023-03-21T11:04:54.572Z,6.65
2023-03-21T11:06:59.708Z,4.53
2023-03-21T11:09:07.464Z,4.80
2023-03-21T11:11:13.143Z,3.58
2023-03-21T11:13:19.691Z,6.50
2023-03-21T11:15:30.166Z,5.75
2023-03-21T11:17:36.606Z,8.27
2023-03-21T11:19:39.265Z,6.20
2023-03-21T11:21:45.162Z,9.98
2023-03-21T11:23:52.830Z,4.00
2023-03-21T11:25:56.168Z,5.90
2023-03-21T11:27:58.969Z,5.22
2023-03-21T11:30:05.033Z,6.53
2023-03-21T11:32:13.138Z,4.93
2023-03-21T11:34:27.415Z,5.50
2023-03-21T11:36:40.982Z,7.22
2023-03-21T11:38:43.600Z,4.40
2023-03-21T11:40:55.416Z,6.22
2023-03-21T11:45:12.264Z,3.38
2023-03-21T11:47:14.829Z,6.43
2023-03-21T11:49:17.699Z,7.70
2023-03-21T11:51:29.881Z,6.00
2023-03-21T11:53:41.591Z,5.18
2023-03-21T11:55:58.898Z,6.28
2023-03-21T11:58:14.905Z,7.20
2023-03-21T12:00:23.741Z,6.28
2023-03-21T12:02:57.509Z,5.63
2023-03-21T12:05:05.378Z,4.85
2023-03-21T12:07:24.329Z,5.47
2023-03-21T12:09:41.031Z,7.32
2023-03-21T12:11:56.296Z,6.50
2023-03-21T12:14:07.184Z,4.65
2023-03-21T12:16:26.048Z,4.20
2023-03-21T12:18:46.683Z,7.20
2023-03-21T12:20:54.546Z,6.55
2023-03-21T12:23:17.057Z,5.88
2023-03-21T12:25:27.780Z,6.30
2023-03-21T12:27:41.670Z,6.40
2023-03-21T12:30:01.795Z,4.63
2023-03-21T12:32:18.555Z,4.47
2023-03-21T12:34:38.876Z,10.13
2023-03-21T12:36:55.489Z,5.03
2023-03-21T12:39:08.608Z,9.52
2023-03-21T12:41:25.451Z,4.68
2023-03-21T12:43:42.235Z,5.30
2023-03-21T12:45:49.904Z,7.57
2023-03-21T12:47:56.894Z,8.57
2023-03-21T12:50:04.457Z,7.53
2023-03-21T12:52:12.644Z,4.95
2023-03-21T12:54:25.194Z,7.60
2023-03-21T12:56:33.255Z,4.32
2023-03-21T12:58:45.216Z,5.28
2023-03-21T13:00:52.179Z,4.40
2023-03-21T13:02:59.545Z,8.75
2023-03-21T13:05:14.167Z,6.82
2023-03-21T13:07:20.664Z,5.57
2023-03-21T13:09:37.637Z,4.97
2023-03-21T13:11:41.483Z,5.38
2023-03-21T13:13:48.956Z,8.32
2023-03-21T13:16:00.405Z,7.22
2023-03-21T13:18:13.198Z,8.18
2023-03-21T13:20:22.732Z,3.95
2023-03-21T13:22:28.698Z,5.53
2023-03-21T13:24:43.715Z,4.32
2023-03-21T13:26:52.869Z,5.38
2023-03-21T13:28:55.795Z,5.38
2023-03-21T13:31:18.228Z,8.30
2023-03-21T13:33:29.378Z,5.93
2023-03-21T13:35:37.872Z,4.10
2023-03-21T13:37:43.594Z,4.13
2023-03-21T13:39:50.501Z,4.43
2023-03-21T13:41:54.631Z,6.45
2023-03-21T13:44:07.872Z,3.72
2023-03-21T13:46:12.326Z,5.63
2023-03-21T13:48:28.762Z,5.95
2023-03-21T13:50:37.464Z,7.07
2023-03-21T13:52:40.167Z,5.45
2023-03-21T13:54:52.964Z,5.18
2023-03-21T13:57:01.032Z,4.10
2023-03-21T13:59:05.167Z,4.10
2023-03-21T14:01:38.053Z,6.65
2023-03-21T14:03:41.744Z,4.03
2023-03-21T14:05:51.264Z,5.38
2023-03-21T14:08:06.237Z,7.45
2023-03-21T14:10:23.209Z,2.88
2023-03-21T14:12:29.718Z,3.33
2023-03-21T14:14:36.362Z,4.97
2023-03-21T14:16:39.676Z,2.75
2023-03-21T14:18:54.203Z,3.22
2023-03-21T14:20:59.868Z,2.10
2023-03-21T14:23:04.778Z,2.20
2023-03-21T14:25:12.154Z,3.30
2023-03-21T14:27:16.278Z,2.45
2023-03-21T14:29:26.510Z,5.40
2023-03-21T14:31:29.601Z,4.38
2023-03-21T14:33:33.669Z,3.00
2023-03-21T14:35:37.164Z,2.83
2023-03-21T14:37:42.475Z,2.10
2023-03-21T14:39:45.100Z,4.70
2023-03-21T14:41:50.878Z,3.92
2023-03-21T14:44:16.576Z,4.95
2023-03-21T14:46:22.005Z,2.92
2023-03-21T14:48:31.654Z,1.88
2023-03-21T14:50:40.493Z,1.95
2023-03-21T14:52:44.390Z,1.95
2023-03-21T14:54:48.421Z,3.55
2023-03-21T14:56:53.272Z,3.40
2023-03-21T14:58:56.918Z,8.57
2023-03-21T15:01:04.083Z,2.15
2023-03-21T15:03:06.842Z,7.50
2023-03-21T15:05:15.385Z,3.63
2023-03-21T15:07:26.126Z,4.65
2023-03-21T15:09:31.583Z,2.55
2023-03-21T15:11:36.092Z,3.15
2023-03-21T15:13:45.402Z,5.97
2023-03-21T15:15:48.772Z,4.72
2023-03-21T15:17:55.783Z,2.65
2023-03-21T15:19:58.444Z,1.88
2023-03-21T15:22:08.475Z,4.00
2023-03-21T15:24:17.138Z,1.63
2023-03-21T15:26:22.181Z,2.90
2023-03-21T15:28:26.797Z,4.00
2023-03-21T15:30:31.314Z,3.05
2023-03-21T15:32:37.938Z,5.85
2023-03-21T15:34:41.881Z,2.67
2023-03-21T15:36:47.770Z,2.72
2023-03-21T15:38:51.391Z,3.17
2023-03-21T15:41:15.030Z,4.13
2023-03-21T15:43:19.854Z,2.00
2023-03-21T15:45:24.874Z,1.70
2023-03-21T15:47:40.606Z,1.70
2023-03-21T15:49:47.560Z,5.60
2023-03-21T15:51:53.511Z,4.40
2023-03-21T15:53:56.456Z,2.05
2023-03-21T15:56:01.976Z,1.80
2023-03-21T15:58:09.772Z,2.08
2023-03-21T16:00:22.826Z,1.58
2023-03-21T16:02:30.758Z,1.92
2023-03-21T16:04:33.357Z,2.35
2023-03-21T16:06:39.552Z,1.50
2023-03-21T16:08:45.951Z,2.58
2023-03-21T16:10:49.813Z,6.32
2023-03-21T16:12:52.611Z,2.25
2023-03-21T16:14:56.485Z,1.83
2023-03-21T16:16:59.561Z,3.63
2023-03-21T16:19:03.238Z,4.57
2023-03-21T16:21:06.515Z,1.90
2023-03-21T16:23:12.355Z,8.73
2023-03-21T16:25:15.254Z,5.68
2023-03-21T16:27:19.807Z,3.47
2023-03-21T16:29:22.556Z,5.60
2023-03-21T16:31:28.134Z,3.33
2023-03-21T16:33:30.703Z,1.85
2023-03-21T16:35:34.145Z,6.63
2023-03-21T16:37:36.715Z,3.72
2023-03-21T16:39:40.777Z,3.17
2023-03-21T16:41:43.553Z,4.18
2023-03-21T16:43:46.678Z,6.10
2023-03-21T16:45:49.245Z,3.28
2023-03-21T16:47:52.678Z,6.70
2023-03-21T16:49:55.698Z,2.05
2023-03-21T16:51:58.265Z,3.50
2023-03-21T16:54:01.090Z,3.40
2023-03-21T16:56:05.519Z,5.30
2023-03-21T16:58:08.141Z,5.40
2023-03-21T17:00:16.741Z,5.00
2023-03-21T17:02:19.313Z,2.67
2023-03-21T17:04:22.478Z,2.47
2023-03-21T17:06:27.612Z,8.27
2023-03-21T17:08:30.513Z,3.40
2023-03-21T17:10:34.341Z,8.95
2023-03-21T17:12:39.102Z,1.80
2023-03-21T17:14:42.215Z,2.80
2023-03-21T17:16:45.324Z,4.80
2023-03-21T17:18:48.498Z,2.08
2023-03-21T17:20:51.088Z,2.60
2023-03-21T17:22:53.702Z,2.58
2023-03-21T17:24:56.262Z,3.83
2023-03-21T17:27:00.344Z,6.05
2023-03-21T17:29:04.448Z,7.00
2023-03-21T17:31:13.853Z,5.10
2023-03-21T17:33:16.445Z,3.70
2023-03-21T17:35:19.677Z,2.67
2023-03-21T17:37:26.022Z,6.00
2023-03-21T17:39:28.851Z,5.40
2023-03-21T17:41:31.460Z,2.95
2023-03-21T17:43:33.994Z,3.60
2023-03-21T17:45:37.875Z,4.38
2023-03-21T17:47:40.541Z,3.47
2023-03-21T17:49:43.173Z,3.03
2023-03-21T17:51:46.987Z,3.88
2023-03-21T17:53:51.851Z,3.33
2023-03-21T17:55:54.496Z,5.22
2023-03-21T17:57:57.135Z,3.20
2023-03-21T17:59:59.939Z,6.07
2023-03-21T18:02:04.393Z,6.07
2023-03-21T18:04:07.230Z,4.20
2023-03-21T18:06:14.892Z,7.10
2023-03-21T18:08:17.463Z,10.43
2023-03-21T18:10:23.185Z,10.25
2023-03-21T18:12:25.720Z,7.80
2023-03-21T18:14:29.441Z,10.20
2023-03-21T18:16:33.243Z,6.35
2023-03-21T18:18:38.020Z,14.90
2023-03-21T18:20:58.409Z,6.13
2023-03-21T18:23:01.264Z,6.57
2023-03-21T18:25:05.738Z,6.68
2023-03-21T18:27:08.761Z,6.82
2023-03-21T18:31:34.098Z,6.55
2023-03-21T18:33:40.184Z,9.68
2023-03-21T18:35:42.841Z,9.85
2023-03-21T18:37:45.453Z,11.68
2023-03-21T18:39:48.185Z,12.90
2023-03-21T18:41:50.866Z,6.13
2023-03-21T18:44:05.188Z,6.68
2023-03-21T18:46:12.716Z,5.93
2023-03-21T18:48:15.396Z,8.27
2023-03-21T18:50:20.443Z,6.43
2023-03-21T18:52:23.038Z,9.80
2023-03-21T18:54:26.296Z,8.00
2023-03-21T18:58:51.846Z,10.85
2023-03-21T19:00:54.658Z,11.68
2023-03-21T19:03:13.048Z,8.27
2023-03-21T19:05:23.563Z,16.17
2023-03-21T19:07:26.174Z,12.32
2023-03-21T19:09:31.933Z,11.05
2023-03-21T19:11:35.822Z,12.40
2023-03-21T19:13:38.468Z,10.63
2023-03-21T19:15:41.658Z,9.48
2023-03-21T19:20:07.883Z,14.82
2023-03-21T19:22:12.614Z,10.13
2023-03-21T19:24:26.947Z,10.98
2023-03-21T19:26:31.410Z,11.45
2023-03-21T19:28:34.107Z,11.32
2023-03-21T19:30:37.055Z,12.27
2023-03-21T19:32:43.301Z,8.57
2023-03-21T19:34:46.952Z,9.65
2023-03-21T19:36:52.091Z,16.88
2023-03-21T19:38:57.013Z,19.98
2023-03-21T19:41:00.095Z,10.43
2023-03-21T19:43:23.857Z,9.98
2023-03-21T19:45:25.191Z,8.40
2023-03-21T19:47:28.445Z,10.75
2023-03-21T19:49:52.095Z,11.75
2023-03-21T19:51:54.187Z,12.93
2023-03-21T19:53:58.159Z,12.95
2023-03-21T19:56:03.628Z,12.10
2023-03-21T19:58:07.100Z,9.98
2023-03-21T20:00:11.316Z,11.95
2023-03-21T20:02:34.354Z,8.02
2023-03-21T20:04:36.987Z,7.72
2023-03-21T20:06:39.555Z,8.90
2023-03-21T20:11:06.750Z,9.75
2023-03-21T20:13:09.421Z,9.50
2023-03-21T20:15:18.690Z,13.45
2023-03-21T20:17:23.676Z,10.93
2023-03-21T20:19:27.222Z,12.13
2023-03-21T20:21:36.635Z,12.43
2023-03-21T20:23:49.304Z,8.50
2023-03-21T20:25:51.942Z,12.82
2023-03-21T20:28:12.764Z,11.30
2023-03-21T20:30:20.000Z,12.32
2023-03-21T20:32:22.585Z,12.48
2023-03-21T20:34:25.239Z,10.48
2023-03-21T20:36:43.760Z,9.80
2023-03-21T20:38:46.689Z,8.13
2023-03-21T20:40:49.939Z,11.10
2023-03-21T20:42:52.638Z,10.48
2023-03-21T20:44:59.093Z,14.10
2023-03-21T20:47:06.266Z,13.73
2023-03-21T20:49:08.827Z,13.35
2023-03-21T20:53:37.450Z,12.65
2023-03-21T20:55:40.083Z,20.58
2023-03-21T20:57:42.634Z,13.27
2023-03-21T20:59:45.955Z,19.63
2023-03-21T21:01:50.517Z,12.55
2023-03-21T21:03:54.260Z,13.77
2023-03-21T21:05:56.861Z,20.27
2023-03-21T21:07:59.424Z,17.02
2023-03-21T21:10:01.998Z,15.73
2023-03-21T21:12:07.632Z,18.42
2023-03-21T21:14:11.243Z,14.18
2023-03-21T21:16:14.524Z,13.73
2023-03-21T21:18:18.483Z,25.23
2023-03-21T21:20:21.365Z,13.52
2023-03-21T21:22:23.989Z,19.25
2023-03-21T21:24:26.667Z,15.18
2023-03-21T21:26:29.256Z,18.35
2023-03-21T21:28:32.094Z,13.90
2023-03-21T21:30:38.140Z,15.40
2023-03-21T21:32:41.900Z,16.35
2023-03-21T21:34:48.026Z,16.17
2023-03-21T21:36:50.670Z,14.10
2023-03-21T21:38:53.235Z,14.23
2023-03-21T21:41:00.516Z,13.98
2023-03-21T21:43:03.923Z,12.85
2023-03-21T21:45:08.531Z,17.25
2023-03-21T21:47:11.196Z,11.23
2023-03-21T21:49:13.794Z,17.48
2023-03-21T21:51:18.067Z,20.63
2023-03-21T21:53:21.273Z,21.42
2023-03-21T21:55:23.930Z,20.90
2023-03-21T21:57:27.165Z,16.77
2023-03-21T21:59:29.977Z,22.73
2023-03-21T22:01:34.724Z,16.63
2023-03-21T22:03:41.072Z,15.77
2023-03-21T22:05:44.751Z,14.30
2023-03-21T22:07:49.426Z,14.52
2023-03-21T22:09:52.209Z,13.95
2023-03-21T22:11:56.593Z,12.38
2023-03-21T22:13:59.150Z,15.70
2023-03-21T22:16:01.762Z,12.30
2023-03-21T22:18:04.751Z,13.85
2023-03-21T22:20:09.723Z,12.18
2023-03-21T22:22:12.433Z,18.30
2023-03-21T22:24:16.614Z,18.70
2023-03-21T22:26:19.280Z,13.25
2023-03-21T22:28:25.528Z,14.77
2023-03-21T22:30:28.110Z,13.48
2023-03-21T22:32:30.725Z,16.25
2023-03-21T22:34:33.313Z,19.75
2023-03-21T22:36:35.872Z,16.38
2023-03-21T22:38:38.929Z,17.33
2023-03-21T22:40:42.862Z,20.00
2023-03-21T22:42:45.485Z,13.93
2023-03-21T22:44:48.082Z,16.75
2023-03-21T22:46:50.695Z,12.57
2023-03-21T22:48:53.260Z,14.70
2023-03-21T22:50:55.819Z,15.10
2023-03-21T22:52:58.361Z,14.85
2023-03-21T22:55:00.938Z,14.48
2023-03-21T22:57:05.207Z,12.63
2023-03-21T22:59:07.754Z,11.75
2023-03-21T23:01:10.375Z,11.68
2023-03-21T23:03:14.502Z,8.75
2023-03-21T23:05:17.275Z,11.50
2023-03-21T23:07:19.874Z,13.05
2023-03-21T23:09:22.469Z,14.55
2023-03-21T23:11:25.475Z,12.55
2023-03-21T23:13:30.038Z,9.85
2023-03-21T23:15:32.769Z,10.30
2023-03-21T23:17:35.627Z,10.23
2023-03-21T23:19:40.559Z,10.52
2023-03-21T23:21:44.286Z,12.20
2023-03-21T23:23:49.749Z,10.10
2023-03-21T23:25:52.456Z,9.20
2023-03-21T23:27:55.158Z,8.70
2023-03-21T23:29:59.122Z,9.18
2023-03-21T23:32:01.894Z,8.90
2023-03-21T23:34:05.262Z,10.98
2023-03-21T23:36:08.921Z,8.23
2023-03-21T23:38:11.459Z,10.93
2023-03-21T23:40:14.765Z,11.50
2023-03-21T23:42:18.739Z,8.55
2023-03-21T23:44:21.382Z,11.88
2023-03-21T23:46:25.334Z,7.93
2023-03-21T23:48:28.321Z,9.07
2023-03-21T23:50:30.921Z,10.18
2023-03-21T23:52:33.540Z,6.88
2023-03-21T23:54:36.344Z,7.57
2023-03-21T23:56:38.960Z,10.27
2023-03-21T23:58:41.592Z,7.90
